Time;durP1;ratioP1;P1;durP2;ratioP2;P2;SDS_P1;SDS_P2;PMS_P1;PMS_P2;Temp;Humidity;BMP_temperature;BMP_pressure;BME280_temperature;BME280_humidity;BME280_pressure;Samples;Min_cycle;Max_cycle;Signal;HPM_P1;HPM_P2
2023/04/22 00:00:48;;;;;;;;;;;10.50;99.90;;;;;;5017841;28;19921;-79
2023/04/22 00:03:13;;;;;;;;;;;10.60;99.90;;;;;;5024915;28;19928;-79
2023/04/22 00:05:40;;;;;;;;;;;10.50;99.90;;;;;;5020766;28;19925;-79
2023/04/22 00:08:06;;;;;;;;;;;10.30;99.90;;;;;;5024450;28;19921;-79
2023/04/22 00:10:32;;;;;;;;;;;10.10;99.90;;;;;;5020439;28;19923;-79
2023/04/22 00:12:57;;;;;;;;;;;10.10;99.90;;;;;;5021868;28;19920;-78
2023/04/22 00:15:24;;;;;;;;;;;10.10;99.90;;;;;;5016614;28;19920;-78
2023/04/22 00:17:49;;;;;;;;;;;10.10;99.90;;;;;;5037552;28;19921;-78
2023/04/22 00:20:16;;;;;;;;;;;9.90;99.90;;;;;;5023085;28;19939;-78
2023/04/22 00:22:41;;;;;;;;;;;9.90;99.90;;;;;;5021942;28;19929;-78
2023/04/22 00:25:07;;;;;;;;;;;9.90;99.90;;;;;;5039525;28;19924;-78
2023/04/22 00:27:33;;;;;;;;;;;9.90;99.90;;;;;;5021703;28;19921;-78
2023/04/22 00:29:58;;;;;;;;;;;9.90;99.90;;;;;;5038290;28;20015;-78
2023/04/22 00:32:25;;;;;;;;;;;10.00;99.90;;;;;;5019753;28;20424;-78
2023/04/22 00:34:50;;;;;;;;;;;9.70;99.90;;;;;;5020769;28;20538;-78
2023/04/22 00:37:16;;;;;;;;;;;9.70;99.90;;;;;;5023353;28;19932;-78
2023/04/22 00:39:41;;;;;;;;;;;9.80;99.90;;;;;;5021796;28;19920;-78
2023/04/22 00:42:07;;;;;;;;;;;9.80;99.90;;;;;;5022100;28;20297;-79
2023/04/22 00:44:34;;;;;;;;;;;9.80;99.90;;;;;;5037400;28;20477;-78
2023/04/22 00:47:00;;;;;;;;;;;9.50;99.90;;;;;;5038997;28;20396;-78
2023/04/22 00:49:26;;;;;;;;;;;9.70;99.90;;;;;;5020877;28;19959;-78
2023/04/22 00:51:52;;;;;;;;;;;9.30;99.90;;;;;;5021304;28;19924;-78
2023/04/22 00:54:18;;;;;;;;;;;9.50;99.90;;;;;;5018277;28;20433;-78
2023/04/22 00:56:44;;;;;;;;;;;9.50;99.90;;;;;;5021303;28;19943;-78
2023/04/22 00:59:09;;;;;;;;;;;9.60;99.90;;;;;;5012000;28;20767;-78
2023/04/22 01:01:35;;;;;;;;;;;9.50;99.90;;;;;;5032882;28;19928;-78
2023/04/22 01:04:02;;;;;;;;;;;9.40;99.90;;;;;;5019408;28;20631;-78
2023/04/22 01:06:29;;;;;;;;;;;9.40;99.90;;;;;;5000071;28;19928;-78
2023/04/22 01:08:55;;;;;;;;;;;9.30;99.90;;;;;;5018685;28;19944;-79
2023/04/22 01:11:20;;;;;;;;;;;9.30;99.90;;;;;;5022796;28;20031;-78
2023/04/22 01:13:46;;;;;;;;;;;9.20;99.90;;;;;;5018735;28;20031;-78
2023/04/22 01:16:11;;;;;;;;;;;9.30;99.90;;;;;;5021084;28;19927;-79
2023/04/22 01:18:37;;;;;;;;;;;9.20;99.90;;;;;;5034447;28;19921;-78
2023/04/22 01:21:03;;;;;;;;;;;9.10;99.90;;;;;;5019318;28;19921;-78
2023/04/22 01:23:29;;;;;;;;;;;8.80;99.90;;;;;;5010978;28;20012;-78
2023/04/22 01:25:54;;;;;;;;;;;8.90;99.90;;;;;;5032882;28;19917;-78
2023/04/22 01:28:20;;;;;;;;;;;9.00;99.90;;;;;;5017649;28;20542;-78
2023/04/22 01:30:47;;;;;;;;;;;8.90;99.90;;;;;;5014291;28;19920;-78
2023/04/22 01:33:13;;;;;;;;;;;8.80;99.90;;;;;;5020574;28;19921;-78
2023/04/22 01:35:40;;;;;;;;;;;8.80;99.90;;;;;;5014968;28;19967;-78
2023/04/22 01:38:07;;;;;;;;;;;8.70;99.90;;;;;;5026570;28;19928;-78
2023/04/22 01:40:33;;;;;;;;;;;8.80;99.90;;;;;;5012364;28;19920;-78
2023/04/22 01:42:59;;;;;;;;;;;8.60;99.90;;;;;;5014817;28;20389;-78
2023/04/22 01:45:28;;;;;;;;;;;8.40;99.90;;;;;;5017865;28;19940;-79
2023/04/22 01:47:54;;;;;;;;;;;8.50;99.90;;;;;;5018875;28;19921;-78
2023/04/22 01:50:20;;;;;;;;;;;8.60;99.90;;;;;;5034576;28;19921;-78
2023/04/22 01:52:45;;;;;;;;;;;8.70;99.90;;;;;;5019540;28;19920;-79
2023/04/22 01:55:12;;;;;;;;;;;8.60;99.90;;;;;;5036206;28;19924;-78
2023/04/22 01:57:37;;;;;;;;;;;8.50;99.90;;;;;;5032608;28;21062;-78
2023/04/22 02:00:04;;;;;;;;;;;8.60;99.90;;;;;;5016006;28;20007;-79
2023/04/22 02:02:30;;;;;;;;;;;8.40;99.90;;;;;;5017979;28;19967;-78
2023/04/22 02:04:55;;;;;;;;;;;8.40;99.90;;;;;;5019601;28;19920;-78
2023/04/22 02:07:21;;;;;;;;;;;8.40;99.90;;;;;;5006856;28;20051;-79
2023/04/22 02:09:46;;;;;;;;;;;8.50;99.90;;;;;;5024799;28;20054;-78
2023/04/22 02:12:12;;;;;;;;;;;8.60;99.90;;;;;;5037446;28;19921;-78
2023/04/22 02:14:37;;;;;;;;;;;8.70;99.90;;;;;;5019278;28;19921;-78
2023/04/22 02:17:03;;;;;;;;;;;8.50;99.90;;;;;;5018691;28;19929;-78
2023/04/22 02:19:29;;;;;;;;;;;8.60;99.90;;;;;;5016881;28;19917;-78
2023/04/22 02:21:54;;;;;;;;;;;8.70;99.90;;;;;;5019467;28;19917;-78
2023/04/22 02:24:20;;;;;;;;;;;8.70;99.90;;;;;;5019767;28;20027;-78
2023/04/22 02:26:46;;;;;;;;;;;8.60;99.90;;;;;;5017398;28;20071;-78
2023/04/22 02:29:12;;;;;;;;;;;8.80;99.90;;;;;;5017585;28;19925;-78
2023/04/22 02:31:38;;;;;;;;;;;8.40;99.90;;;;;;5018451;28;19920;-78
2023/04/22 02:34:03;;;;;;;;;;;8.40;99.90;;;;;;5015639;28;19924;-78
2023/04/22 02:36:30;;;;;;;;;;;8.30;99.90;;;;;;5020197;28;19920;-78
2023/04/22 02:38:56;;;;;;;;;;;8.00;99.90;;;;;;5018633;28;19968;-79
2023/04/22 02:41:22;;;;;;;;;;;8.40;99.90;;;;;;5020264;28;19952;-78
2023/04/22 02:43:47;;;;;;;;;;;8.30;99.90;;;;;;5034006;28;20288;-78
2023/04/22 02:46:14;;;;;;;;;;;8.50;99.90;;;;;;5016003;28;20007;-78
2023/04/22 02:48:40;;;;;;;;;;;8.50;99.90;;;;;;5018909;28;20003;-78
2023/04/22 02:51:06;;;;;;;;;;;8.80;99.90;;;;;;5032768;28;20003;-78
2023/04/22 02:53:31;;;;;;;;;;;8.90;99.90;;;;;;5038858;28;19927;-78
2023/04/22 02:55:57;;;;;;;;;;;8.70;99.90;;;;;;5018117;28;19917;-78
2023/04/22 02:58:23;;;;;;;;;;;8.50;99.90;;;;;;5020520;28;19917;-78
2023/04/22 03:00:48;;;;;;;;;;;8.40;99.90;;;;;;5034051;28;19967;-78
2023/04/22 03:03:14;;;;;;;;;;;8.20;99.90;;;;;;5037170;28;19967;-78
2023/04/22 03:05:39;;;;;;;;;;;8.10;99.90;;;;;;5018403;28;19970;-78
2023/04/22 03:08:05;;;;;;;;;;;8.00;99.90;;;;;;5020602;28;19921;-78
2023/04/22 03:10:31;;;;;;;;;;;8.00;99.90;;;;;;5015588;28;19928;-78
2023/04/22 03:12:57;;;;;;;;;;;7.90;99.90;;;;;;5037282;28;19921;-78
2023/04/22 03:15:22;;;;;;;;;;;7.80;99.90;;;;;;5020380;28;20694;-78
2023/04/22 03:17:48;;;;;;;;;;;7.90;99.90;;;;;;5021683;28;19921;-78
2023/04/22 03:20:13;;;;;;;;;;;7.80;99.90;;;;;;5023714;28;19921;-78
2023/04/22 03:22:39;;;;;;;;;;;7.70;99.90;;;;;;5040398;28;19927;-79
2023/04/22 03:25:05;;;;;;;;;;;7.70;99.90;;;;;;5020806;28;19928;-79
2023/04/22 03:27:31;;;;;;;;;;;7.60;99.90;;;;;;5041429;28;20343;-79
2023/04/22 03:29:57;;;;;;;;;;;7.70;99.90;;;;;;5025242;28;19928;-78
2023/04/22 03:32:22;;;;;;;;;;;7.70;99.90;;;;;;5041401;28;20498;-79
2023/04/22 03:34:48;;;;;;;;;;;7.80;99.90;;;;;;5024996;28;19917;-79
2023/04/22 03:37:14;;;;;;;;;;;7.80;99.90;;;;;;5040033;28;20007;-79
2023/04/22 03:39:40;;;;;;;;;;;7.70;99.90;;;;;;5016607;28;19959;-79
2023/04/22 03:42:05;;;;;;;;;;;7.60;99.90;;;;;;5022357;28;20317;-79
2023/04/22 03:44:31;;;;;;;;;;;7.40;99.90;;;;;;5025366;28;20265;-79
2023/04/22 03:46:56;;;;;;;;;;;7.00;99.90;;;;;;5021261;28;19964;-78
2023/04/22 03:49:22;;;;;;;;;;;7.30;99.90;;;;;;5006033;28;19921;-79
2023/04/22 03:51:47;;;;;;;;;;;7.20;99.90;;;;;;5033707;28;19921;-79
2023/04/22 03:54:13;;;;;;;;;;;7.20;99.90;;;;;;5011379;28;19979;-79
2023/04/22 03:56:39;;;;;;;;;;;7.10;99.90;;;;;;5022553;28;19926;-79
2023/04/22 03:59:04;;;;;;;;;;;7.10;99.90;;;;;;5019069;28;19916;-79
2023/04/22 04:01:30;;;;;;;;;;;7.50;99.90;;;;;;5024061;28;19927;-79
2023/04/22 04:03:55;;;;;;;;;;;7.50;99.90;;;;;;5024247;28;20387;-79
2023/04/22 04:06:21;;;;;;;;;;;7.50;99.90;;;;;;5035858;28;19924;-79
2023/04/22 04:08:46;;;;;;;;;;;7.50;99.90;;;;;;5023563;28;20269;-79
2023/04/22 04:11:12;;;;;;;;;;;7.70;99.90;;;;;;5021442;28;19927;-79
2023/04/22 04:13:38;;;;;;;;;;;7.50;99.90;;;;;;5020467;28;19920;-79
2023/04/22 04:16:03;;;;;;;;;;;7.70;99.90;;;;;;5021469;28;20358;-79
2023/04/22 04:18:29;;;;;;;;;;;7.90;99.90;;;;;;5019740;28;19916;-79
2023/04/22 04:20:55;;;;;;;;;;;8.30;99.90;;;;;;5022322;28;19924;-79
2023/04/22 04:23:20;;;;;;;;;;;8.50;99.90;;;;;;5024216;28;19928;-79
2023/04/22 04:25:46;;;;;;;;;;;8.50;99.90;;;;;;5019889;28;19921;-79
2023/04/22 04:28:12;;;;;;;;;;;8.50;99.90;;;;;;5025197;28;19921;-79
2023/04/22 04:30:40;;;;;;;;;;;8.40;99.90;;;;;;5022569;28;19920;-79
2023/04/22 04:33:05;;;;;;;;;;;8.60;99.90;;;;;;5020506;28;19970;-79
2023/04/22 04:35:33;;;;;;;;;;;8.70;99.90;;;;;;5033799;28;19924;-79
2023/04/22 04:37:59;;;;;;;;;;;8.80;99.90;;;;;;5035378;28;19962;-79
2023/04/22 04:40:25;;;;;;;;;;;8.80;99.90;;;;;;5015974;28;20477;-80
2023/04/22 04:42:51;;;;;;;;;;;9.00;99.90;;;;;;5020720;28;19974;-79
2023/04/22 04:45:18;;;;;;;;;;;8.80;99.90;;;;;;5019768;28;19925;-80
2023/04/22 04:47:43;;;;;;;;;;;8.90;99.90;;;;;;5019457;28;20007;-79
2023/04/22 04:50:09;;;;;;;;;;;9.20;99.90;;;;;;5037580;28;19927;-79
2023/04/22 04:52:35;;;;;;;;;;;9.00;99.90;;;;;;5039946;28;20382;-79
2023/04/22 04:55:00;;;;;;;;;;;9.30;99.90;;;;;;5038276;28;19921;-79
2023/04/22 04:57:26;;;;;;;;;;;9.30;99.90;;;;;;5022956;28;19931;-79
2023/04/22 04:59:51;;;;;;;;;;;9.30;99.90;;;;;;5021460;28;19921;-79
2023/04/22 05:02:17;;;;;;;;;;;9.50;99.90;;;;;;5037654;28;19928;-79
2023/04/22 05:04:43;;;;;;;;;;;9.30;99.90;;;;;;5021586;28;19921;-80
2023/04/22 05:07:08;;;;;;;;;;;9.30;99.90;;;;;;5038616;28;19956;-80
2023/04/22 05:09:36;;;;;;;;;;;9.50;99.90;;;;;;5019117;28;19928;-79
2023/04/22 05:12:02;;;;;;;;;;;9.40;99.90;;;;;;5022509;28;19920;-79
2023/04/22 05:14:27;;;;;;;;;;;9.60;99.90;;;;;;5020680;28;19928;-80
2023/04/22 05:16:53;;;;;;;;;;;9.50;99.90;;;;;;5025334;28;19921;-79
2023/04/22 05:19:19;;;;;;;;;;;9.50;99.90;;;;;;5016630;28;20054;-78
2023/04/22 05:21:44;;;;;;;;;;;9.50;99.90;;;;;;5018945;28;19921;-77
2023/04/22 05:24:10;;;;;;;;;;;9.60;99.90;;;;;;5022512;28;19973;-78
2023/04/22 05:26:35;;;;;;;;;;;9.50;99.90;;;;;;5025686;28;19920;-79
2023/04/22 05:29:01;;;;;;;;;;;9.60;99.90;;;;;;5020395;28;19921;-79
2023/04/22 05:31:27;;;;;;;;;;;9.60;99.90;;;;;;5022831;28;19932;-79
2023/04/22 05:33:53;;;;;;;;;;;9.60;99.90;;;;;;5023330;28;19978;-78
2023/04/22 05:36:19;;;;;;;;;;;9.60;99.90;;;;;;5019559;28;19982;-79
2023/04/22 05:38:44;;;;;;;;;;;9.60;99.90;;;;;;5019480;28;19921;-79
2023/04/22 05:41:10;;;;;;;;;;;9.70;99.90;;;;;;5022580;28;19928;-79
2023/04/22 05:43:35;;;;;;;;;;;9.60;99.90;;;;;;5022254;28;20401;-79
2023/04/22 05:46:01;;;;;;;;;;;9.80;99.90;;;;;;5004900;28;19917;-79
2023/04/22 05:48:26;;;;;;;;;;;9.80;99.90;;;;;;5022079;28;19935;-79
2023/04/22 05:50:53;;;;;;;;;;;9.90;99.90;;;;;;5021884;28;19924;-79
2023/04/22 05:53:18;;;;;;;;;;;9.90;99.90;;;;;;5037116;28;19942;-80
2023/04/22 05:55:44;;;;;;;;;;;9.90;99.90;;;;;;5005395;28;20447;-78
2023/04/22 05:58:09;;;;;;;;;;;9.90;99.90;;;;;;5021919;28;19916;-78
2023/04/22 06:00:35;;;;;;;;;;;10.00;99.90;;;;;;5038190;28;20493;-79
2023/04/22 06:03:00;;;;;;;;;;;10.00;99.90;;;;;;5041698;28;20434;-79
2023/04/22 06:05:26;;;;;;;;;;;10.10;99.90;;;;;;5029262;28;19929;-79
2023/04/22 06:07:52;;;;;;;;;;;10.20;99.90;;;;;;5022448;28;19924;-79
2023/04/22 06:10:17;;;;;;;;;;;10.30;99.90;;;;;;5020650;28;19921;-80
2023/04/22 06:12:43;;;;;;;;;;;10.20;99.90;;;;;;5020737;28;19928;-80
2023/04/22 06:15:10;;;;;;;;;;;10.30;99.90;;;;;;5019656;28;20408;-80
2023/04/22 06:17:35;;;;;;;;;;;10.40;99.90;;;;;;5030142;28;20037;-80
2023/04/22 06:20:01;;;;;;;;;;;10.40;99.90;;;;;;5019066;28;20429;-80
2023/04/22 06:22:27;;;;;;;;;;;10.40;99.90;;;;;;5022170;28;19974;-79
2023/04/22 06:24:52;;;;;;;;;;;10.50;99.90;;;;;;5037665;28;19964;-80
2023/04/22 06:27:18;;;;;;;;;;;10.50;99.90;;;;;;5038618;28;19981;-81
2023/04/22 06:29:43;;;;;;;;;;;10.60;99.90;;;;;;5019766;28;19924;-80
2023/04/22 06:32:09;;;;;;;;;;;10.60;99.90;;;;;;5021416;28;20003;-80
2023/04/22 06:34:34;;;;;;;;;;;10.80;99.90;;;;;;5038138;28;19960;-79
2023/04/22 06:37:00;;;;;;;;;;;10.80;99.90;;;;;;5038452;28;19921;-79
2023/04/22 06:39:25;;;;;;;;;;;10.90;99.90;;;;;;5037768;28;19920;-79
2023/04/22 06:41:51;;;;;;;;;;;11.00;99.90;;;;;;5023819;28;19917;-79
2023/04/22 06:44:16;;;;;;;;;;;11.10;99.90;;;;;;5018998;28;20807;-78
2023/04/22 06:46:42;;;;;;;;;;;11.20;99.90;;;;;;5021923;28;19917;-78
2023/04/22 06:49:07;;;;;;;;;;;11.20;99.90;;;;;;5020282;28;19917;-79
2023/04/22 06:51:33;;;;;;;;;;;11.30;99.90;;;;;;5010887;28;19921;-80
2023/04/22 06:53:59;;;;;;;;;;;11.40;99.90;;;;;;5023988;28;19927;-80
2023/04/22 06:56:24;;;;;;;;;;;11.50;99.90;;;;;;5021447;28;19921;-80
2023/04/22 06:58:50;;;;;;;;;;;11.60;99.90;;;;;;5025424;28;20582;-79
2023/04/22 07:01:16;;;;;;;;;;;11.70;99.90;;;;;;5037958;28;20415;-80
2023/04/22 07:03:41;;;;;;;;;;;11.80;99.90;;;;;;5025010;28;20007;-80
2023/04/22 07:06:07;;;;;;;;;;;11.80;99.90;;;;;;5041300;28;20274;-80
2023/04/22 07:08:32;;;;;;;;;;;11.90;99.90;;;;;;5026031;28;20035;-80
2023/04/22 07:10:58;;;;;;;;;;;11.90;99.90;;;;;;5023955;28;19965;-79
2023/04/22 07:13:25;;;;;;;;;;;11.80;99.90;;;;;;5029540;28;19922;-79
2023/04/22 07:15:51;;;;;;;;;;;11.90;99.90;;;;;;5023226;28;19986;-79
2023/04/22 07:18:17;;;;;;;;;;;11.90;99.90;;;;;;5041229;28;20251;-80
2023/04/22 07:20:42;;;;;;;;;;;12.00;99.90;;;;;;5039016;28;19921;-79
2023/04/22 07:23:08;;;;;;;;;;;12.10;99.90;;;;;;5021531;28;20642;-79
2023/04/22 07:25:33;;;;;;;;;;;12.20;99.90;;;;;;5040833;28;20366;-79
2023/04/22 07:27:59;;;;;;;;;;;12.20;99.90;;;;;;5023936;28;19916;-80
2023/04/22 07:30:25;;;;;;;;;;;12.40;99.90;;;;;;5022353;28;19917;-80
2023/04/22 07:32:51;;;;;;;;;;;12.60;99.90;;;;;;5021373;28;19921;-79
2023/04/22 07:35:17;;;;;;;;;;;12.70;99.90;;;;;;5021455;28;19927;-79
2023/04/22 07:37:42;;;;;;;;;;;12.90;99.90;;;;;;5025404;28;19980;-78
2023/04/22 07:40:10;;;;;;;;;;;13.10;99.90;;;;;;5037824;28;20431;-79
2023/04/22 07:42:37;;;;;;;;;;;13.00;99.90;;;;;;5034002;28;20028;-79
2023/04/22 07:45:03;;;;;;;;;;;13.40;99.90;;;;;;5024979;28;19921;-79
2023/04/22 07:47:28;;;;;;;;;;;13.30;99.90;;;;;;5026820;28;19925;-79
2023/04/22 07:49:54;;;;;;;;;;;13.70;99.90;;;;;;5023875;28;20362;-79
2023/04/22 07:52:20;;;;;;;;;;;14.00;99.90;;;;;;5025722;28;19921;-79
2023/04/22 07:54:45;;;;;;;;;;;14.00;99.90;;;;;;5020663;28;20350;-80
2023/04/22 07:57:11;;;;;;;;;;;14.10;99.90;;;;;;5023497;28;19916;-79
2023/04/22 07:59:36;;;;;;;;;;;14.10;99.90;;;;;;5042635;28;19924;-79
2023/04/22 08:02:02;;;;;;;;;;;14.50;99.90;;;;;;5024604;28;19917;-80
2023/04/22 08:04:27;;;;;;;;;;;15.00;99.90;;;;;;5018513;28;19929;-80
2023/04/22 08:06:53;;;;;;;;;;;15.50;99.90;;;;;;5011622;28;19920;-79
2023/04/22 08:09:19;;;;;;;;;;;15.70;99.90;;;;;;5014223;28;20528;-80
2023/04/22 08:11:44;;;;;;;;;;;16.10;99.90;;;;;;5035321;28;19921;-79
2023/04/22 08:14:10;;;;;;;;;;;16.10;99.90;;;;;;5023458;28;19928;-79
2023/04/22 08:16:36;;;;;;;;;;;16.10;99.90;;;;;;5023960;28;19921;-78
2023/04/22 08:19:02;;;;;;;;;;;16.50;99.90;;;;;;5008304;28;20012;-79
2023/04/22 08:21:27;;;;;;;;;;;16.90;99.90;;;;;;5039875;28;20151;-78
2023/04/22 08:23:53;;;;;;;;;;;16.90;99.90;;;;;;4994929;28;19999;-79
2023/04/22 08:26:19;;;;;;;;;;;16.70;99.90;;;;;;5036932;28;19916;-79
2023/04/22 08:28:45;;;;;;;;;;;17.20;99.90;;;;;;5016307;28;19927;-79
2023/04/22 08:31:11;;;;;;;;;;;17.10;99.90;;;;;;5020705;28;19927;-79
2023/04/22 08:33:38;;;;;;;;;;;17.40;99.90;;;;;;5023766;28;19927;-79
2023/04/22 08:36:04;;;;;;;;;;;17.70;99.90;;;;;;5023654;28;19947;-79
2023/04/22 08:38:30;;;;;;;;;;;17.10;99.90;;;;;;5022452;28;19929;-79
2023/04/22 08:40:56;;;;;;;;;;;17.10;99.90;;;;;;5008888;28;19921;-79
2023/04/22 08:43:24;;;;;;;;;;;17.00;99.90;;;;;;5012595;28;19921;-80
2023/04/22 08:45:49;;;;;;;;;;;17.20;99.90;;;;;;5012107;28;20382;-80
2023/04/22 08:48:16;;;;;;;;;;;16.80;99.90;;;;;;5015018;28;19956;-79
2023/04/22 08:50:41;;;;;;;;;;;17.30;99.90;;;;;;5026418;28;19921;-79
2023/04/22 08:53:07;;;;;;;;;;;17.80;99.90;;;;;;5039549;28;19921;-79
2023/04/22 08:55:33;;;;;;;;;;;18.20;99.90;;;;;;5020913;28;20400;-80
2023/04/22 08:57:59;;;;;;;;;;;18.70;99.90;;;;;;4988079;28;19916;-79
2023/04/22 09:00:25;;;;;;;;;;;18.90;99.90;;;;;;5019204;28;20697;-79
2023/04/22 09:02:51;;;;;;;;;;;18.80;99.90;;;;;;5036513;28;19975;-79
2023/04/22 09:05:17;;;;;;;;;;;18.70;99.90;;;;;;5015250;28;19979;-79
2023/04/22 09:07:42;;;;;;;;;;;18.40;99.90;;;;;;5016145;28;20008;-77
2023/04/22 09:10:10;;;;;;;;;;;18.60;99.90;;;;;;5012552;28;20001;-78
2023/04/22 09:12:36;;;;;;;;;;;18.70;99.90;;;;;;5015892;28;20274;-78
2023/04/22 09:15:02;;;;;;;;;;;18.80;99.90;;;;;;5029297;28;19928;-78
2023/04/22 09:17:32;;;;;;;;;;;18.50;99.90;;;;;;5002359;28;19925;-78
2023/04/22 09:20:01;;;;;;;;;;;18.70;99.90;;;;;;5012593;28;19986;-77
2023/04/22 09:22:27;;;;;;;;;;;19.20;99.90;;;;;;5013853;28;19932;-78
2023/04/22 09:24:53;;;;;;;;;;;19.40;99.90;;;;;;5021412;28;19920;-79
2023/04/22 09:27:20;;;;;;;;;;;19.80;99.90;;;;;;5003975;28;20357;-78
2023/04/22 09:29:49;;;;;;;;;;;19.70;99.90;;;;;;4979323;28;19977;-78
2023/04/22 09:32:15;;;;;;;;;;;19.90;99.90;;;;;;4992686;28;19921;-78
2023/04/22 09:34:51;;;;;;;;;;;20.40;99.90;;;;;;4995731;28;19916;-78
2023/04/22 09:37:18;;;;;;;;;;;20.60;99.90;;;;;;4996502;28;20497;-78
2023/04/22 09:39:46;;;;;;;;;;;20.50;99.90;;;;;;4991774;28;20356;-78
2023/04/22 09:42:12;;;;;;;;;;;19.90;99.90;;;;;;5020352;28;19946;-79
2023/04/22 09:44:37;;;;;;;;;;;20.10;99.90;;;;;;5010904;28;20616;-79
2023/04/22 09:47:03;;;;;;;;;;;20.50;99.90;;;;;;5005952;28;19941;-79
2023/04/22 09:49:28;;;;;;;;;;;19.90;99.90;;;;;;5025531;28;19920;-78
2023/04/22 09:51:55;;;;;;;;;;;19.90;99.90;;;;;;5011624;28;20365;-78
2023/04/22 09:54:22;;;;;;;;;;;20.10;99.90;;;;;;5014715;28;19921;-78
2023/04/22 09:56:49;;;;;;;;;;;20.50;99.90;;;;;;5026000;28;20491;-78
2023/04/22 09:59:21;;;;;;;;;;;20.70;99.90;;;;;;5008745;28;20023;-78
2023/04/22 10:01:47;;;;;;;;;;;20.10;99.90;;;;;;5010354;28;19921;-78
2023/04/22 10:04:14;;;;;;;;;;;19.80;99.90;;;;;;5008635;28;19921;-79
2023/04/22 10:06:41;;;;;;;;;;;20.10;99.90;;;;;;5021029;28;19929;-78
2023/04/22 10:09:06;;;;;;;;;;;20.60;99.90;;;;;;5020572;28;19939;-77
2023/04/22 10:11:33;;;;;;;;;;;20.90;99.90;;;;;;5021329;28;19933;-79
2023/04/22 10:14:01;;;;;;;;;;;21.00;99.90;;;;;;5020738;28;20436;-78
2023/04/22 10:16:31;;;;;;;;;;;21.40;99.90;;;;;;5022528;28;19982;-77
2023/04/22 10:18:58;;;;;;;;;;;21.30;99.90;;;;;;5020565;28;20169;-78
2023/04/22 10:21:24;;;;;;;;;;;20.60;99.90;;;;;;5019990;28;20396;-80
2023/04/22 10:23:50;;;;;;;;;;;21.30;99.90;;;;;;5037211;28;19992;-79
2023/04/22 10:26:34;;;;;;;;;;;21.60;99.90;;;;;;5018100;28;19982;-78
2023/04/22 10:29:00;;;;;;;;;;;21.90;99.90;;;;;;5019759;28;20463;-78
2023/04/22 10:31:25;;;;;;;;;;;21.60;99.90;;;;;;5039031;28;19948;-78
2023/04/22 10:34:07;;;;;;;;;;;21.70;99.90;;;;;;5019877;28;19936;-79
2023/04/22 10:36:32;;;;;;;;;;;21.60;99.90;;;;;;5021686;28;19920;-78
2023/04/22 10:38:58;;;;;;;;;;;22.10;99.90;;;;;;5021254;28;20397;-78
2023/04/22 10:41:25;;;;;;;;;;;22.30;99.90;;;;;;5033308;28;19962;-78
2023/04/22 10:44:00;;;;;;;;;;;22.40;99.90;;;;;;5037981;28;20337;-79
2023/04/22 10:46:31;;;;;;;;;;;22.40;99.90;;;;;;5036947;28;20007;-78
2023/04/22 10:49:06;;;;;;;;;;;22.40;99.90;;;;;;5037621;28;19972;-77
2023/04/22 10:51:42;;;;;;;;;;;22.40;99.90;;;;;;5038266;28;19920;-77
2023/04/22 10:54:26;;;;;;;;;;;22.10;99.90;;;;;;5034714;28;19924;-79
2023/04/22 10:57:03;;;;;;;;;;;22.50;99.90;;;;;;5037598;28;19920;-78
2023/04/22 10:59:30;;;;;;;;;;;22.70;99.90;;;;;;5020368;28;20622;-78
2023/04/22 11:02:02;;;;;;;;;;;22.20;99.90;;;;;;5038817;28;19959;-80
2023/04/22 11:04:27;;;;;;;;;;;22.50;99.90;;;;;;5039761;28;19925;-78
2023/04/22 11:07:11;;;;;;;;;;;22.60;99.90;;;;;;5037788;28;19921;-79
2023/04/22 11:09:42;;;;;;;;;;;22.80;99.90;;;;;;5038706;28;19924;-78
2023/04/22 11:12:26;;;;;;;;;;;22.80;99.90;;;;;;5036653;28;19924;-78
2023/04/22 11:14:52;;;;;;;;;;;22.80;99.90;;;;;;5020197;28;19924;-78
2023/04/22 11:17:18;;;;;;;;;;;22.80;99.90;;;;;;5021063;28;20318;-78
2023/04/22 11:19:45;;;;;;;;;;;22.90;99.90;;;;;;5036019;28;19916;-78
2023/04/22 11:22:11;;;;;;;;;;;22.60;99.90;;;;;;5038607;28;19921;-78
2023/04/22 11:24:37;;;;;;;;;;;22.80;99.90;;;;;;5037628;28;19935;-77
2023/04/22 11:27:04;;;;;;;;;;;22.70;99.90;;;;;;5036319;28;19960;-78
2023/04/22 11:29:29;;;;;;;;;;;22.20;99.90;;;;;;5017727;28;19920;-78
2023/04/22 11:31:56;;;;;;;;;;;22.00;99.90;;;;;;5017178;28;19924;-78
2023/04/22 11:34:21;;;;;;;;;;;21.90;99.90;;;;;;5021229;28;19927;-79
2023/04/22 11:36:47;;;;;;;;;;;21.80;99.90;;;;;;5041766;28;20328;-78
2023/04/22 11:39:15;;;;;;;;;;;21.70;99.90;;;;;;5043493;28;19971;-79
2023/04/22 11:41:41;;;;;;;;;;;21.60;99.90;;;;;;5019261;28;20165;-78
2023/04/22 11:44:06;;;;;;;;;;;21.80;99.90;;;;;;5042503;28;19924;-78
2023/04/22 11:46:38;;;;;;;;;;;21.60;99.90;;;;;;5022964;28;19921;-79
2023/04/22 11:49:13;;;;;;;;;;;21.80;99.90;;;;;;5021836;28;19920;-79
2023/04/22 11:51:55;;;;;;;;;;;22.10;99.90;;;;;;5041057;28;19935;-79
2023/04/22 11:54:30;;;;;;;;;;;22.60;99.90;;;;;;5022578;28;19921;-78
2023/04/22 11:56:56;;;;;;;;;;;22.30;99.90;;;;;;5032451;28;20205;-79
2023/04/22 11:59:24;;;;;;;;;;;22.60;99.90;;;;;;5040275;28;20000;-78
2023/04/22 12:01:50;;;;;;;;;;;22.90;99.90;;;;;;5041933;28;19963;-78
2023/04/22 12:04:16;;;;;;;;;;;22.90;99.90;;;;;;5042255;28;19964;-79
2023/04/22 12:06:42;;;;;;;;;;;23.00;99.90;;;;;;5038766;28;20019;-81
2023/04/22 12:09:07;;;;;;;;;;;22.80;99.90;;;;;;5022274;28;19925;-80
2023/04/22 12:11:33;;;;;;;;;;;22.30;99.90;;;;;;5021626;28;19979;-80
2023/04/22 12:14:04;;;;;;;;;;;22.70;99.90;;;;;;5023229;28;19917;-80
2023/04/22 12:16:38;;;;;;;;;;;23.00;99.90;;;;;;5040185;28;19943;-78
2023/04/22 12:19:03;;;;;;;;;;;23.40;99.90;;;;;;5038966;28;19928;-79
2023/04/22 12:21:30;;;;;;;;;;;22.60;99.90;;;;;;5022988;28;20408;-79
2023/04/22 12:24:03;;;;;;;;;;;22.60;99.90;;;;;;5022859;28;19921;-78
2023/04/22 12:26:29;;;;;;;;;;;22.40;99.90;;;;;;5018174;28;19930;-78
2023/04/22 12:28:56;;;;;;;;;;;22.20;99.90;;;;;;5040171;28;20280;-78
2023/04/22 12:31:22;;;;;;;;;;;21.70;99.90;;;;;;5021071;28;20007;-79
2023/04/22 12:33:47;;;;;;;;;;;22.10;99.90;;;;;;5020503;28;20019;-77
2023/04/22 12:36:13;;;;;;;;;;;22.40;99.90;;;;;;5038580;28;19979;-79
2023/04/22 12:38:38;;;;;;;;;;;22.40;99.90;;;;;;5019657;28;20374;-79
2023/04/22 12:41:05;;;;;;;;;;;22.40;99.90;;;;;;5022294;28;20058;-79
2023/04/22 12:43:32;;;;;;;;;;;22.20;99.90;;;;;;5020290;28;20030;-79
2023/04/22 12:45:57;;;;;;;;;;;22.50;99.90;;;;;;5018575;28;19921;-77
2023/04/22 12:48:23;;;;;;;;;;;22.20;99.90;;;;;;5019575;28;19920;-78
2023/04/22 12:50:49;;;;;;;;;;;21.80;99.90;;;;;;5012333;28;19928;-77
2023/04/22 12:53:15;;;;;;;;;;;21.50;99.90;;;;;;5009909;28;19921;-77
2023/04/22 12:55:41;;;;;;;;;;;21.70;99.90;;;;;;5010049;28;20011;-78
2023/04/22 12:58:06;;;;;;;;;;;21.40;99.90;;;;;;5029290;28;20172;-78
2023/04/22 13:00:32;;;;;;;;;;;21.40;99.90;;;;;;5034465;28;19924;-78
2023/04/22 13:02:57;;;;;;;;;;;21.30;99.90;;;;;;5019863;28;19925;-77
2023/04/22 13:05:23;;;;;;;;;;;21.50;99.90;;;;;;5019197;28;20281;-77
2023/04/22 13:07:49;;;;;;;;;;;21.40;99.90;;;;;;5017948;28;19924;-78
2023/04/22 13:10:15;;;;;;;;;;;21.60;99.90;;;;;;5035091;28;20671;-78
2023/04/22 13:12:41;;;;;;;;;;;22.20;99.90;;;;;;5009307;28;19928;-79
2023/04/22 13:15:07;;;;;;;;;;;22.90;99.90;;;;;;5013471;28;19921;-77
2023/04/22 13:17:33;;;;;;;;;;;23.20;99.90;;;;;;5002026;28;19948;-78
2023/04/22 13:19:59;;;;;;;;;;;23.40;99.90;;;;;;5017184;28;19921;-79
2023/04/22 13:22:25;;;;;;;;;;;23.10;99.90;;;;;;5033556;28;19927;-78
2023/04/22 13:24:50;;;;;;;;;;;23.20;99.90;;;;;;5013576;28;20361;-77
2023/04/22 13:27:16;;;;;;;;;;;23.10;99.90;;;;;;5018525;28;20801;-78
2023/04/22 13:29:42;;;;;;;;;;;22.70;99.90;;;;;;5015697;28;20337;-77
2023/04/22 13:32:07;;;;;;;;;;;22.20;99.90;;;;;;5037151;28;19924;-78
2023/04/22 13:34:33;;;;;;;;;;;21.60;99.90;;;;;;5002181;28;19923;-80
2023/04/22 13:36:59;;;;;;;;;;;21.80;99.90;;;;;;5017549;28;20445;-78
2023/04/22 13:39:25;;;;;;;;;;;21.60;99.90;;;;;;5030318;28;20026;-78
2023/04/22 13:41:50;;;;;;;;;;;21.60;99.90;;;;;;5036731;28;19952;-78
2023/04/22 13:44:16;;;;;;;;;;;21.50;99.90;;;;;;5021229;28;20263;-78
2023/04/22 13:46:42;;;;;;;;;;;21.30;99.90;;;;;;5034723;28;20535;-78
2023/04/22 13:49:08;;;;;;;;;;;21.00;99.90;;;;;;5011727;28;19920;-78
2023/04/22 13:51:34;;;;;;;;;;;20.60;99.90;;;;;;5009683;28;21760;-77
2023/04/22 13:54:00;;;;;;;;;;;20.20;99.90;;;;;;4993418;28;20004;-78
2023/04/22 13:56:26;;;;;;;;;;;20.00;99.90;;;;;;4979632;28;19940;-78
2023/04/22 13:58:52;;;;;;;;;;;19.70;99.90;;;;;;5031822;28;19923;-78
2023/04/22 14:01:18;;;;;;;;;;;19.50;99.90;;;;;;4984577;28;20035;-77
2023/04/22 14:03:44;;;;;;;;;;;19.20;99.90;;;;;;5016280;28;19916;-76
2023/04/22 14:06:10;;;;;;;;;;;19.30;99.90;;;;;;4993315;28;19929;-78
2023/04/22 14:08:35;;;;;;;;;;;19.10;99.90;;;;;;4996514;28;20581;-77
2023/04/22 14:11:02;;;;;;;;;;;19.30;99.90;;;;;;5016076;28;20035;-78
2023/04/22 14:13:28;;;;;;;;;;;19.60;99.90;;;;;;4980535;28;20378;-78
2023/04/22 14:15:54;;;;;;;;;;;19.90;99.90;;;;;;5026273;28;19928;-77